sensor_id;sensor_type;location;lat;lon;timestamp;temperature;humidity
71396;DHT22;59888;55.814;37.132;2023-09-19T00:02:02;12.25;62.18
71396;DHT22;59888;55.814;37.132;2023-09-19T00:04:32;12.23;62.15
71396;DHT22;59888;55.814;37.132;2023-09-19T00:06:58;12.26;62.29
71396;DHT22;59888;55.814;37.132;2023-09-19T00:09:24;12.31;62.23
71396;DHT22;59888;55.814;37.132;2023-09-19T00:11:53;12.35;62.15
71396;DHT22;59888;55.814;37.132;2023-09-19T00:14:19;12.43;62.11
71396;DHT22;59888;55.814;37.132;2023-09-19T00:16:45;12.45;62.08
71396;DHT22;59888;55.814;37.132;2023-09-19T00:19:11;12.44;62.09
71396;DHT22;59888;55.814;37.132;2023-09-19T00:21:38;12.48;62.18
71396;DHT22;59888;55.814;37.132;2023-09-19T00:24:06;12.53;62.16
71396;DHT22;59888;55.814;37.132;2023-09-19T00:26:32;12.57;62.10
71396;DHT22;59888;55.814;37.132;2023-09-19T00:29:00;12.62;62.06
71396;DHT22;59888;55.814;37.132;2023-09-19T00:31:34;12.63;62.01
71396;DHT22;59888;55.814;37.132;2023-09-19T00:34:00;12.61;61.96
71396;DHT22;59888;55.814;37.132;2023-09-19T00:36:29;12.60;62.05
71396;DHT22;59888;55.814;37.132;2023-09-19T00:38:55;12.63;62.22
71396;DHT22;59888;55.814;37.132;2023-09-19T00:41:21;12.65;62.06
71396;DHT22;59888;55.814;37.132;2023-09-19T00:43:46;12.67;62.08
71396;DHT22;59888;55.814;37.132;2023-09-19T00:46:16;12.70;62.12
71396;DHT22;59888;55.814;37.132;2023-09-19T00:48:42;12.76;62.24
71396;DHT22;59888;55.814;37.132;2023-09-19T00:51:11;12.82;62.15
71396;DHT22;59888;55.814;37.132;2023-09-19T00:53:39;12.85;62.15
71396;DHT22;59888;55.814;37.132;2023-09-19T00:56:09;12.90;62.13
71396;DHT22;59888;55.814;37.132;2023-09-19T00:58:35;12.90;62.12
71396;DHT22;59888;55.814;37.132;2023-09-19T01:01:02;12.89;62.45
71396;DHT22;59888;55.814;37.132;2023-09-19T01:03:36;12.87;62.66
71396;DHT22;59888;55.814;37.132;2023-09-19T01:06:01;12.86;62.82
71396;DHT22;59888;55.814;37.132;2023-09-19T01:08:28;12.93;62.78
71396;DHT22;59888;55.814;37.132;2023-09-19T01:10:56;12.95;62.87
71396;DHT22;59888;55.814;37.132;2023-09-19T01:16:02;13.00;62.96
71396;DHT22;59888;55.814;37.132;2023-09-19T01:21:16;12.93;63.79
71396;DHT22;59888;55.814;37.132;2023-09-19T01:23:59;12.94;63.68
71396;DHT22;59888;55.814;37.132;2023-09-19T01:31:46;12.87;63.36
71396;DHT22;59888;55.814;37.132;2023-09-19T01:34:12;12.78;63.49
71396;DHT22;59888;55.814;37.132;2023-09-19T01:36:38;12.69;63.50
71396;DHT22;59888;55.814;37.132;2023-09-19T01:39:08;12.61;63.72
71396;DHT22;59888;55.814;37.132;2023-09-19T01:41:47;12.59;63.57
71396;DHT22;59888;55.814;37.132;2023-09-19T01:44:18;12.53;63.54
71396;DHT22;59888;55.814;37.132;2023-09-19T01:46:46;12.52;63.66
71396;DHT22;59888;55.814;37.132;2023-09-19T01:51:50;12.45;63.40
71396;DHT22;59888;55.814;37.132;2023-09-19T01:54:18;12.44;63.65
71396;DHT22;59888;55.814;37.132;2023-09-19T01:57:07;12.44;63.89
71396;DHT22;59888;55.814;37.132;2023-09-19T01:59:40;12.51;64.21
71396;DHT22;59888;55.814;37.132;2023-09-19T02:02:06;12.58;64.69
71396;DHT22;59888;55.814;37.132;2023-09-19T02:04:34;12.58;63.98
71396;DHT22;59888;55.814;37.132;2023-09-19T02:07:00;12.51;63.69
71396;DHT22;59888;55.814;37.132;2023-09-19T02:09:26;12.47;63.56
71396;DHT22;59888;55.814;37.132;2023-09-19T02:11:52;12.43;63.53
71396;DHT22;59888;55.814;37.132;2023-09-19T02:14:18;12.48;63.41
71396;DHT22;59888;55.814;37.132;2023-09-19T02:16:45;12.51;63.23
71396;DHT22;59888;55.814;37.132;2023-09-19T02:19:11;12.55;63.03
71396;DHT22;59888;55.814;37.132;2023-09-19T02:21:37;12.53;62.94
71396;DHT22;59888;55.814;37.132;2023-09-19T02:24:06;12.48;63.47
71396;DHT22;59888;55.814;37.132;2023-09-19T02:26:35;12.46;63.55
71396;DHT22;59888;55.814;37.132;2023-09-19T02:29:02;12.49;63.87
71396;DHT22;59888;55.814;37.132;2023-09-19T02:31:30;12.51;63.91
71396;DHT22;59888;55.814;37.132;2023-09-19T02:33:56;12.53;63.95
71396;DHT22;59888;55.814;37.132;2023-09-19T02:36:22;12.55;63.66
71396;DHT22;59888;55.814;37.132;2023-09-19T02:38:49;12.59;63.81
71396;DHT22;59888;55.814;37.132;2023-09-19T02:41:15;12.64;63.69
71396;DHT22;59888;55.814;37.132;2023-09-19T02:43:40;12.69;63.60
71396;DHT22;59888;55.814;37.132;2023-09-19T02:46:08;12.71;63.80
71396;DHT22;59888;55.814;37.132;2023-09-19T02:48:34;12.73;63.98
71396;DHT22;59888;55.814;37.132;2023-09-19T02:51:01;12.80;63.92
71396;DHT22;59888;55.814;37.132;2023-09-19T02:53:29;12.87;63.86
71396;DHT22;59888;55.814;37.132;2023-09-19T02:55:57;12.93;63.95
71396;DHT22;59888;55.814;37.132;2023-09-19T02:58:24;12.94;63.85
71396;DHT22;59888;55.814;37.132;2023-09-19T03:00:51;12.97;63.74
71396;DHT22;59888;55.814;37.132;2023-09-19T03:03:17;12.97;63.83
71396;DHT22;59888;55.814;37.132;2023-09-19T03:05:43;13.00;63.75
71396;DHT22;59888;55.814;37.132;2023-09-19T03:08:14;13.02;63.56
71396;DHT22;59888;55.814;37.132;2023-09-19T03:10:45;13.03;63.55
71396;DHT22;59888;55.814;37.132;2023-09-19T03:13:11;13.03;63.31
71396;DHT22;59888;55.814;37.132;2023-09-19T03:15:40;13.01;63.53
71396;DHT22;59888;55.814;37.132;2023-09-19T03:18:06;13.00;63.47
71396;DHT22;59888;55.814;37.132;2023-09-19T03:20:33;13.01;63.50
71396;DHT22;59888;55.814;37.132;2023-09-19T03:22:59;13.02;63.44
71396;DHT22;59888;55.814;37.132;2023-09-19T03:25:27;13.04;63.62
71396;DHT22;59888;55.814;37.132;2023-09-19T03:27:55;13.04;63.56
71396;DHT22;59888;55.814;37.132;2023-09-19T03:30:24;13.04;63.50
71396;DHT22;59888;55.814;37.132;2023-09-19T03:32:52;13.04;63.92
71396;DHT22;59888;55.814;37.132;2023-09-19T03:35:18;13.06;63.85
71396;DHT22;59888;55.814;37.132;2023-09-19T03:37:46;13.09;63.66
71396;DHT22;59888;55.814;37.132;2023-09-19T03:40:13;13.09;63.69
71396;DHT22;59888;55.814;37.132;2023-09-19T03:42:40;13.11;63.50
71396;DHT22;59888;55.814;37.132;2023-09-19T03:45:08;13.14;63.60
71396;DHT22;59888;55.814;37.132;2023-09-19T03:47:40;13.20;63.98
71396;DHT22;59888;55.814;37.132;2023-09-19T03:50:08;13.24;63.89
71396;DHT22;59888;55.814;37.132;2023-09-19T03:52:36;13.27;64.03
71396;DHT22;59888;55.814;37.132;2023-09-19T03:55:02;13.34;64.21
71396;DHT22;59888;55.814;37.132;2023-09-19T03:57:35;13.39;64.05
71396;DHT22;59888;55.814;37.132;2023-09-19T04:00:02;13.43;63.91
71396;DHT22;59888;55.814;37.132;2023-09-19T04:02:39;13.46;64.08
71396;DHT22;59888;55.814;37.132;2023-09-19T04:05:05;13.49;64.43
71396;DHT22;59888;55.814;37.132;2023-09-19T04:07:31;13.58;64.36
71396;DHT22;59888;55.814;37.132;2023-09-19T04:09:57;13.64;64.20
71396;DHT22;59888;55.814;37.132;2023-09-19T04:12:23;13.71;63.82
71396;DHT22;59888;55.814;37.132;2023-09-19T04:14:49;13.78;64.11
71396;DHT22;59888;55.814;37.132;2023-09-19T04:17:21;13.89;64.53
71396;DHT22;59888;55.814;37.132;2023-09-19T04:19:46;13.96;63.86
71396;DHT22;59888;55.814;37.132;2023-09-19T04:22:12;14.01;63.78
71396;DHT22;59888;55.814;37.132;2023-09-19T04:24:38;14.06;63.66
71396;DHT22;59888;55.814;37.132;2023-09-19T04:27:04;14.09;63.73
71396;DHT22;59888;55.814;37.132;2023-09-19T04:29:30;14.12;63.52
71396;DHT22;59888;55.814;37.132;2023-09-19T04:31:56;14.17;63.33
71396;DHT22;59888;55.814;37.132;2023-09-19T04:34:25;14.23;63.45
71396;DHT22;59888;55.814;37.132;2023-09-19T04:36:51;14.29;63.36
71396;DHT22;59888;55.814;37.132;2023-09-19T04:39:18;14.35;63.34
71396;DHT22;59888;55.814;37.132;2023-09-19T04:41:44;14.40;63.41
71396;DHT22;59888;55.814;37.132;2023-09-19T04:44:10;14.44;63.27
71396;DHT22;59888;55.814;37.132;2023-09-19T04:46:36;14.47;63.12
71396;DHT22;59888;55.814;37.132;2023-09-19T04:49:02;14.45;63.31
71396;DHT22;59888;55.814;37.132;2023-09-19T04:51:28;14.43;63.44
71396;DHT22;59888;55.814;37.132;2023-09-19T04:53:58;14.51;63.44
71396;DHT22;59888;55.814;37.132;2023-09-19T04:56:24;14.59;63.55
71396;DHT22;59888;55.814;37.132;2023-09-19T04:58:50;14.75;63.46
71396;DHT22;59888;55.814;37.132;2023-09-19T05:01:16;14.89;63.37
71396;DHT22;59888;55.814;37.132;2023-09-19T05:03:42;15.02;63.11
71396;DHT22;59888;55.814;37.132;2023-09-19T05:06:08;15.13;62.80
71396;DHT22;59888;55.814;37.132;2023-09-19T05:08:33;15.28;62.70
71396;DHT22;59888;55.814;37.132;2023-09-19T05:11:01;15.48;62.53
71396;DHT22;59888;55.814;37.132;2023-09-19T05:13:27;15.65;62.20
71396;DHT22;59888;55.814;37.132;2023-09-19T05:15:53;15.90;62.12
71396;DHT22;59888;55.814;37.132;2023-09-19T05:18:19;16.17;61.15
71396;DHT22;59888;55.814;37.132;2023-09-19T05:20:44;16.31;60.83
71396;DHT22;59888;55.814;37.132;2023-09-19T05:23:10;16.45;60.64
71396;DHT22;59888;55.814;37.132;2023-09-19T05:25:39;16.64;60.26
71396;DHT22;59888;55.814;37.132;2023-09-19T05:28:06;16.82;59.78
71396;DHT22;59888;55.814;37.132;2023-09-19T05:30:33;16.95;59.82
71396;DHT22;59888;55.814;37.132;2023-09-19T05:33:04;17.11;59.44
71396;DHT22;59888;55.814;37.132;2023-09-19T05:35:30;17.24;59.19
71396;DHT22;59888;55.814;37.132;2023-09-19T05:37:57;17.35;58.72
71396;DHT22;59888;55.814;37.132;2023-09-19T05:40:23;17.44;58.64
71396;DHT22;59888;55.814;37.132;2023-09-19T05:42:49;17.51;57.72
71396;DHT22;59888;55.814;37.132;2023-09-19T05:45:16;17.53;58.16
71396;DHT22;59888;55.814;37.132;2023-09-19T05:47:48;17.59;57.96
71396;DHT22;59888;55.814;37.132;2023-09-19T05:50:14;17.62;58.18
71396;DHT22;59888;55.814;37.132;2023-09-19T05:52:42;17.70;57.61
71396;DHT22;59888;55.814;37.132;2023-09-19T05:55:12;17.75;57.42
71396;DHT22;59888;55.814;37.132;2023-09-19T05:57:38;17.77;57.79
71396;DHT22;59888;55.814;37.132;2023-09-19T06:00:05;17.84;57.71
71396;DHT22;59888;55.814;37.132;2023-09-19T06:02:40;17.95;57.58
71396;DHT22;59888;55.814;37.132;2023-09-19T06:05:07;18.09;57.28
71396;DHT22;59888;55.814;37.132;2023-09-19T06:07:36;18.27;57.03
71396;DHT22;59888;55.814;37.132;2023-09-19T06:10:05;18.40;56.49
71396;DHT22;59888;55.814;37.132;2023-09-19T06:12:33;18.43;56.54
71396;DHT22;59888;55.814;37.132;2023-09-19T06:15:04;18.56;56.40
71396;DHT22;59888;55.814;37.132;2023-09-19T06:17:31;18.63;56.16
71396;DHT22;59888;55.814;37.132;2023-09-19T06:19:57;18.72;56.10
71396;DHT22;59888;55.814;37.132;2023-09-19T06:22:23;18.80;55.67
71396;DHT22;59888;55.814;37.132;2023-09-19T06:24:49;18.81;55.84
71396;DHT22;59888;55.814;37.132;2023-09-19T06:27:15;18.83;55.78
71396;DHT22;59888;55.814;37.132;2023-09-19T06:29:41;18.85;55.66
71396;DHT22;59888;55.814;37.132;2023-09-19T06:32:10;18.88;55.63
71396;DHT22;59888;55.814;37.132;2023-09-19T06:34:37;18.94;55.61
71396;DHT22;59888;55.814;37.132;2023-09-19T06:37:04;18.95;55.52
71396;DHT22;59888;55.814;37.132;2023-09-19T06:39:31;18.98;55.38
71396;DHT22;59888;55.814;37.132;2023-09-19T06:41:57;19.03;55.34
71396;DHT22;59888;55.814;37.132;2023-09-19T06:44:23;19.05;55.38
71396;DHT22;59888;55.814;37.132;2023-09-19T06:46:50;19.07;55.10
71396;DHT22;59888;55.814;37.132;2023-09-19T06:49:17;19.02;55.23
71396;DHT22;59888;55.814;37.132;2023-09-19T06:51:43;19.05;55.18
71396;DHT22;59888;55.814;37.132;2023-09-19T06:54:12;19.09;55.20
71396;DHT22;59888;55.814;37.132;2023-09-19T06:56:38;19.21;55.12
71396;DHT22;59888;55.814;37.132;2023-09-19T06:59:04;19.31;55.03
71396;DHT22;59888;55.814;37.132;2023-09-19T07:01:32;19.41;54.63
71396;DHT22;59888;55.814;37.132;2023-09-19T07:03:59;19.50;54.49
71396;DHT22;59888;55.814;37.132;2023-09-19T07:06:25;19.58;54.33
71396;DHT22;59888;55.814;37.132;2023-09-19T07:08:51;19.71;54.29
71396;DHT22;59888;55.814;37.132;2023-09-19T07:11:17;19.87;53.94
71396;DHT22;59888;55.814;37.132;2023-09-19T07:13:42;20.01;53.77
71396;DHT22;59888;55.814;37.132;2023-09-19T07:16:11;20.34;53.30
71396;DHT22;59888;55.814;37.132;2023-09-19T07:18:44;20.58;52.83
71396;DHT22;59888;55.814;37.132;2023-09-19T07:21:11;20.77;52.20
71396;DHT22;59888;55.814;37.132;2023-09-19T07:23:40;20.89;51.96
71396;DHT22;59888;55.814;37.132;2023-09-19T07:26:06;20.95;51.79
71396;DHT22;59888;55.814;37.132;2023-09-19T07:28:32;21.02;51.56
71396;DHT22;59888;55.814;37.132;2023-09-19T07:31:01;21.04;51.46
71396;DHT22;59888;55.814;37.132;2023-09-19T07:33:28;21.15;51.23
71396;DHT22;59888;55.814;37.132;2023-09-19T07:35:54;21.27;51.11
71396;DHT22;59888;55.814;37.132;2023-09-19T07:38:20;21.23;50.91
71396;DHT22;59888;55.814;37.132;2023-09-19T07:40:46;21.22;50.89
71396;DHT22;59888;55.814;37.132;2023-09-19T07:43:12;21.19;50.84
71396;DHT22;59888;55.814;37.132;2023-09-19T07:45:38;21.10;50.88
71396;DHT22;59888;55.814;37.132;2023-09-19T07:48:04;21.08;51.02
71396;DHT22;59888;55.814;37.132;2023-09-19T07:50:33;21.14;50.97
71396;DHT22;59888;55.814;37.132;2023-09-19T07:52:59;21.17;50.99
71396;DHT22;59888;55.814;37.132;2023-09-19T07:55:25;21.18;50.92
71396;DHT22;59888;55.814;37.132;2023-09-19T07:57:51;21.16;50.92
71396;DHT22;59888;55.814;37.132;2023-09-19T08:00:17;21.13;50.92
71396;DHT22;59888;55.814;37.132;2023-09-19T08:02:43;21.09;50.94
71396;DHT22;59888;55.814;37.132;2023-09-19T08:05:09;21.08;51.02
71396;DHT22;59888;55.814;37.132;2023-09-19T08:07:36;21.08;50.84
71396;DHT22;59888;55.814;37.132;2023-09-19T08:10:03;21.01;51.22
71396;DHT22;59888;55.814;37.132;2023-09-19T08:12:29;20.98;51.24
71396;DHT22;59888;55.814;37.132;2023-09-19T08:14:55;21.02;51.26
71396;DHT22;59888;55.814;37.132;2023-09-19T08:17:21;21.06;51.24
71396;DHT22;59888;55.814;37.132;2023-09-19T08:19:50;21.09;51.00
71396;DHT22;59888;55.814;37.132;2023-09-19T08:22:19;21.16;51.08
71396;DHT22;59888;55.814;37.132;2023-09-19T08:24:46;21.20;51.05
71396;DHT22;59888;55.814;37.132;2023-09-19T08:27:14;21.31;50.92
71396;DHT22;59888;55.814;37.132;2023-09-19T08:29:40;21.35;50.88
71396;DHT22;59888;55.814;37.132;2023-09-19T08:32:08;21.39;50.67
71396;DHT22;59888;55.814;37.132;2023-09-19T08:34:33;21.42;50.48
71396;DHT22;59888;55.814;37.132;2023-09-19T08:36:59;21.39;50.57
71396;DHT22;59888;55.814;37.132;2023-09-19T08:39:25;21.37;50.58
71396;DHT22;59888;55.814;37.132;2023-09-19T08:41:58;21.34;50.59
71396;DHT22;59888;55.814;37.132;2023-09-19T08:44:27;21.30;50.66
71396;DHT22;59888;55.814;37.132;2023-09-19T08:46:59;21.33;50.61
71396;DHT22;59888;55.814;37.132;2023-09-19T08:50:10;21.37;50.65
71396;DHT22;59888;55.814;37.132;2023-09-19T08:52:18;21.53;50.51
71396;DHT22;59888;55.814;37.132;2023-09-19T08:54:46;21.68;50.23
71396;DHT22;59888;55.814;37.132;2023-09-19T08:57:13;21.82;50.21
71396;DHT22;59888;55.814;37.132;2023-09-19T08:59:47;22.02;50.02
71396;DHT22;59888;55.814;37.132;2023-09-19T09:02:14;22.11;49.52
71396;DHT22;59888;55.814;37.132;2023-09-19T09:04:40;22.17;49.73
71396;DHT22;59888;55.814;37.132;2023-09-19T09:07:11;22.31;49.50
71396;DHT22;59888;55.814;37.132;2023-09-19T09:09:38;22.52;49.27
71396;DHT22;59888;55.814;37.132;2023-09-19T09:12:09;22.72;49.18
71396;DHT22;59888;55.814;37.132;2023-09-19T09:14:35;22.88;48.61
71396;DHT22;59888;55.814;37.132;2023-09-19T09:17:01;22.96;48.53
71396;DHT22;59888;55.814;37.132;2023-09-19T09:19:30;23.00;48.34
71396;DHT22;59888;55.814;37.132;2023-09-19T09:22:05;22.97;48.53
71396;DHT22;59888;55.814;37.132;2023-09-19T09:24:32;22.86;48.17
71396;DHT22;59888;55.814;37.132;2023-09-19T09:27:03;22.82;48.63
71396;DHT22;59888;55.814;37.132;2023-09-19T09:29:43;22.72;48.42
71396;DHT22;59888;55.814;37.132;2023-09-19T09:34:47;22.75;48.44
71396;DHT22;59888;55.814;37.132;2023-09-19T09:37:14;22.77;48.36
71396;DHT22;59888;55.814;37.132;2023-09-19T09:39:40;22.83;48.50
71396;DHT22;59888;55.814;37.132;2023-09-19T09:42:28;22.91;48.24
71396;DHT22;59888;55.814;37.132;2023-09-19T09:47:43;23.10;48.17
71396;DHT22;59888;55.814;37.132;2023-09-19T09:50:25;23.20;47.99
71396;DHT22;59888;55.814;37.132;2023-09-19T09:52:55;23.23;47.82
71396;DHT22;59888;55.814;37.132;2023-09-19T09:55:30;23.27;47.84
71396;DHT22;59888;55.814;37.132;2023-09-19T09:58:17;23.38;47.71
71396;DHT22;59888;55.814;37.132;2023-09-19T10:00:53;23.51;47.48
71396;DHT22;59888;55.814;37.132;2023-09-19T10:03:41;23.58;47.45
71396;DHT22;59888;55.814;37.132;2023-09-19T10:06:14;23.66;47.26
71396;DHT22;59888;55.814;37.132;2023-09-19T10:11:38;23.84;47.22
71396;DHT22;59888;55.814;37.132;2023-09-19T10:14:06;23.90;47.02
71396;DHT22;59888;55.814;37.132;2023-09-19T10:16:35;23.97;47.05
71396;DHT22;59888;55.814;37.132;2023-09-19T10:19:05;24.03;46.95
71396;DHT22;59888;55.814;37.132;2023-09-19T10:21:36;24.12;46.93
71396;DHT22;59888;55.814;37.132;2023-09-19T10:24:02;24.21;46.77
71396;DHT22;59888;55.814;37.132;2023-09-19T10:26:30;24.29;46.51
71396;DHT22;59888;55.814;37.132;2023-09-19T10:28:57;24.40;46.49
71396;DHT22;59888;55.814;37.132;2023-09-19T10:31:25;24.44;46.19
71396;DHT22;59888;55.814;37.132;2023-09-19T10:33:51;24.51;46.06
71396;DHT22;59888;55.814;37.132;2023-09-19T10:36:19;24.64;46.13
71396;DHT22;59888;55.814;37.132;2023-09-19T10:38:45;24.80;45.97
71396;DHT22;59888;55.814;37.132;2023-09-19T10:41:12;24.90;45.57
71396;DHT22;59888;55.814;37.132;2023-09-19T10:43:40;24.86;45.60
71396;DHT22;59888;55.814;37.132;2023-09-19T10:46:10;24.95;45.42
71396;DHT22;59888;55.814;37.132;2023-09-19T10:48:37;25.06;45.48
71396;DHT22;59888;55.814;37.132;2023-09-19T10:51:08;25.22;45.03
71396;DHT22;59888;55.814;37.132;2023-09-19T10:53:48;25.28;44.96
71396;DHT22;59888;55.814;37.132;2023-09-19T10:56:23;25.42;44.78
71396;DHT22;59888;55.814;37.132;2023-09-19T10:59:05;25.59;44.73
71396;DHT22;59888;55.814;37.132;2023-09-19T11:01:47;25.77;44.39
71396;DHT22;59888;55.814;37.132;2023-09-19T11:04:29;25.95;44.03
71396;DHT22;59888;55.814;37.132;2023-09-19T11:14:54;26.54;43.16
71396;DHT22;59888;55.814;37.132;2023-09-19T11:30:39;26.93;43.13
71396;DHT22;59888;55.814;37.132;2023-09-19T11:33:22;26.96;42.55
71396;DHT22;59888;55.814;37.132;2023-09-19T11:43:50;27.30;42.38
71396;DHT22;59888;55.814;37.132;2023-09-19T11:46:17;27.42;42.07
71396;DHT22;59888;55.814;37.132;2023-09-19T11:48:48;27.56;42.01
71396;DHT22;59888;55.814;37.132;2023-09-19T11:51:24;27.73;41.65
71396;DHT22;59888;55.814;37.132;2023-09-19T11:53:54;27.74;41.53
71396;DHT22;59888;55.814;37.132;2023-09-19T11:56:21;27.68;41.45
71396;DHT22;59888;55.814;37.132;2023-09-19T11:58:49;27.58;41.32
71396;DHT22;59888;55.814;37.132;2023-09-19T12:01:21;27.53;41.75
71396;DHT22;59888;55.814;37.132;2023-09-19T12:03:47;27.53;41.84
71396;DHT22;59888;55.814;37.132;2023-09-19T12:06:16;27.56;41.94
71396;DHT22;59888;55.814;37.132;2023-09-19T12:08:43;27.63;41.73
71396;DHT22;59888;55.814;37.132;2023-09-19T12:11:12;27.65;41.78
71396;DHT22;59888;55.814;37.132;2023-09-19T12:13:45;27.73;41.82
71396;DHT22;59888;55.814;37.132;2023-09-19T12:16:15;27.94;41.97
71396;DHT22;59888;55.814;37.132;2023-09-19T12:18:45;28.14;41.92
71396;DHT22;59888;55.814;37.132;2023-09-19T12:21:26;28.21;42.36
71396;DHT22;59888;55.814;37.132;2023-09-19T12:24:04;28.20;41.78
71396;DHT22;59888;55.814;37.132;2023-09-19T12:26:36;0.00;41.36
71396;DHT22;59888;55.814;37.132;2023-09-19T12:29:03;29.16;40.10
71396;DHT22;59888;55.814;37.132;2023-09-19T12:31:30;30.46;37.69
71396;DHT22;59888;55.814;37.132;2023-09-19T12:34:01;32.93;34.92
71396;DHT22;59888;55.814;37.132;2023-09-19T12:36:28;34.46;30.85
71396;DHT22;59888;55.814;37.132;2023-09-19T12:38:59;34.16;30.75
71396;DHT22;59888;55.814;37.132;2023-09-19T12:41:25;33.42;30.75
71396;DHT22;59888;55.814;37.132;2023-09-19T12:43:55;33.16;29.05
71396;DHT22;59888;55.814;37.132;2023-09-19T12:46:21;32.30;27.84
71396;DHT22;59888;55.814;37.132;2023-09-19T12:51:35;31.14;31.85
71396;DHT22;59888;55.814;37.132;2023-09-19T12:54:01;30.50;31.03
71396;DHT22;59888;55.814;37.132;2023-09-19T12:56:28;29.74;33.51
71396;DHT22;59888;55.814;37.132;2023-09-19T12:58:55;29.19;34.60
71396;DHT22;59888;55.814;37.132;2023-09-19T13:01:22;28.97;33.60
71396;DHT22;59888;55.814;37.132;2023-09-19T13:06:35;31.08;34.08
71396;DHT22;59888;55.814;37.132;2023-09-19T13:09:07;31.16;30.77
71396;DHT22;59888;55.814;37.132;2023-09-19T13:11:35;31.39;30.53
71396;DHT22;59888;55.814;37.132;2023-09-19T13:22:36;34.69;29.13
71396;DHT22;59888;55.814;37.132;2023-09-19T13:25:06;35.81;27.23
71396;DHT22;59888;55.814;37.132;2023-09-19T13:27:33;36.17;19.70
71396;DHT22;59888;55.814;37.132;2023-09-19T13:29:59;36.46;26.59
71396;DHT22;59888;55.814;37.132;2023-09-19T13:32:25;37.18;27.03
71396;DHT22;59888;55.814;37.132;2023-09-19T13:34:51;38.37;26.48
71396;DHT22;59888;55.814;37.132;2023-09-19T13:37:17;39.48;26.40
71396;DHT22;59888;55.814;37.132;2023-09-19T13:39:44;40.10;25.82
71396;DHT22;59888;55.814;37.132;2023-09-19T13:42:13;40.53;24.77
71396;DHT22;59888;55.814;37.132;2023-09-19T13:44:39;40.40;25.75
71396;DHT22;59888;55.814;37.132;2023-09-19T13:47:06;39.98;24.96
71396;DHT22;59888;55.814;37.132;2023-09-19T13:49:38;39.70;25.62
71396;DHT22;59888;55.814;37.132;2023-09-19T13:52:04;39.87;25.49
71396;DHT22;59888;55.814;37.132;2023-09-19T13:54:30;40.16;25.49
71396;DHT22;59888;55.814;37.132;2023-09-19T13:56:56;40.47;24.43
71396;DHT22;59888;55.814;37.132;2023-09-19T13:59:22;40.52;24.13
71396;DHT22;59888;55.814;37.132;2023-09-19T14:01:49;40.62;25.57
71396;DHT22;59888;55.814;37.132;2023-09-19T14:04:16;40.65;22.14
71396;DHT22;59888;55.814;37.132;2023-09-19T14:06:47;40.37;25.78
71396;DHT22;59888;55.814;37.132;2023-09-19T14:09:13;40.01;24.85
71396;DHT22;59888;55.814;37.132;2023-09-19T14:11:39;39.74;25.17
71396;DHT22;59888;55.814;37.132;2023-09-19T14:14:05;39.26;25.52
71396;DHT22;59888;55.814;37.132;2023-09-19T14:16:31;38.71;24.69
71396;DHT22;59888;55.814;37.132;2023-09-19T14:18:59;38.09;24.53
71396;DHT22;59888;55.814;37.132;2023-09-19T14:21:25;37.80;25.38
71396;DHT22;59888;55.814;37.132;2023-09-19T14:23:51;37.76;23.67
71396;DHT22;59888;55.814;37.132;2023-09-19T14:26:20;37.66;25.70
71396;DHT22;59888;55.814;37.132;2023-09-19T14:28:45;37.72;26.08
71396;DHT22;59888;55.814;37.132;2023-09-19T14:31:12;37.34;25.31
71396;DHT22;59888;55.814;37.132;2023-09-19T14:33:38;37.36;25.81
71396;DHT22;59888;55.814;37.132;2023-09-19T14:36:04;37.54;25.53
71396;DHT22;59888;55.814;37.132;2023-09-19T14:38:35;37.72;26.60
71396;DHT22;59888;55.814;37.132;2023-09-19T14:41:02;37.74;25.61
71396;DHT22;59888;55.814;37.132;2023-09-19T14:43:28;37.61;27.34
71396;DHT22;59888;55.814;37.132;2023-09-19T14:48:30;36.74;25.94
71396;DHT22;59888;55.814;37.132;2023-09-19T14:51:01;36.72;26.33
71396;DHT22;59888;55.814;37.132;2023-09-19T14:53:29;36.11;26.61
71396;DHT22;59888;55.814;37.132;2023-09-19T14:55:55;34.93;26.99
71396;DHT22;59888;55.814;37.132;2023-09-19T14:58:21;33.81;27.97
71396;DHT22;59888;55.814;37.132;2023-09-19T15:00:47;32.91;28.50
71396;DHT22;59888;55.814;37.132;2023-09-19T15:03:13;32.07;29.36
71396;DHT22;59888;55.814;37.132;2023-09-19T15:05:40;31.29;30.05
71396;DHT22;59888;55.814;37.132;2023-09-19T15:08:06;30.70;30.75
71396;DHT22;59888;55.814;37.132;2023-09-19T15:10:32;30.15;31.38
71396;DHT22;59888;55.814;37.132;2023-09-19T15:12:57;29.63;31.92
71396;DHT22;59888;55.814;37.132;2023-09-19T15:15:24;29.12;32.46
71396;DHT22;59888;55.814;37.132;2023-09-19T15:17:50;28.61;33.02
71396;DHT22;59888;55.814;37.132;2023-09-19T15:20:16;28.19;33.53
71396;DHT22;59888;55.814;37.132;2023-09-19T15:22:53;27.79;34.08
71396;DHT22;59888;55.814;37.132;2023-09-19T15:25:21;27.42;34.49
71396;DHT22;59888;55.814;37.132;2023-09-19T15:27:48;27.09;34.93
71396;DHT22;59888;55.814;37.132;2023-09-19T15:30:15;26.79;35.37
71396;DHT22;59888;55.814;37.132;2023-09-19T15:32:41;26.57;35.69
71396;DHT22;59888;55.814;37.132;2023-09-19T15:35:07;26.32;36.02
71396;DHT22;59888;55.814;37.132;2023-09-19T15:37:35;26.03;36.43
71396;DHT22;59888;55.814;37.132;2023-09-19T15:40:01;25.77;36.79
71396;DHT22;59888;55.814;37.132;2023-09-19T15:42:27;25.56;37.04
71396;DHT22;59888;55.814;37.132;2023-09-19T15:44:53;25.32;37.35
71396;DHT22;59888;55.814;37.132;2023-09-19T15:47:20;25.14;37.67
71396;DHT22;59888;55.814;37.132;2023-09-19T15:49:47;24.92;37.91
71396;DHT22;59888;55.814;37.132;2023-09-19T15:52:16;24.70;38.23
71396;DHT22;59888;55.814;37.132;2023-09-19T15:54:42;24.47;38.49
71396;DHT22;59888;55.814;37.132;2023-09-19T15:57:13;24.19;38.96
71396;DHT22;59888;55.814;37.132;2023-09-19T15:59:39;23.99;39.20
71396;DHT22;59888;55.814;37.132;2023-09-19T16:02:05;23.83;39.41
71396;DHT22;59888;55.814;37.132;2023-09-19T16:04:30;23.65;39.68
71396;DHT22;59888;55.814;37.132;2023-09-19T16:06:56;23.45;40.10
71396;DHT22;59888;55.814;37.132;2023-09-19T16:09:23;23.28;40.33
71396;DHT22;59888;55.814;37.132;2023-09-19T16:11:48;23.17;40.52
71396;DHT22;59888;55.814;37.132;2023-09-19T16:14:14;23.03;40.87
71396;DHT22;59888;55.814;37.132;2023-09-19T16:16:40;22.91;40.94
71396;DHT22;59888;55.814;37.132;2023-09-19T16:19:06;22.80;41.11
71396;DHT22;59888;55.814;37.132;2023-09-19T16:21:36;22.66;41.49
71396;DHT22;59888;55.814;37.132;2023-09-19T16:24:02;22.53;41.61
71396;DHT22;59888;55.814;37.132;2023-09-19T16:26:28;22.44;41.79
71396;DHT22;59888;55.814;37.132;2023-09-19T16:28:56;22.34;41.93